sensor_id;sensor_type;location;lat;lon;timestamp;P1;durP1;ratioP1;P2;durP2;ratioP2
52368;SDS011;38298;50.346;3.526;2023-03-14T00:01:24;12.88;;;1.65;;
52368;SDS011;38298;50.346;3.526;2023-03-14T00:03:50;8.15;;;1.20;;
52368;SDS011;38298;50.346;3.526;2023-03-14T00:06:16;9.10;;;1.38;;
52368;SDS011;38298;50.346;3.526;2023-03-14T00:08:43;7.90;;;1.13;;
52368;SDS011;38298;50.346;3.526;2023-03-14T00:11:10;10.38;;;1.10;;
52368;SDS011;38298;50.346;3.526;2023-03-14T00:13:37;9.00;;;1.80;;
52368;SDS011;38298;50.346;3.526;2023-03-14T00:16:06;11.93;;;1.60;;
52368;SDS011;38298;50.346;3.526;2023-03-14T00:18:33;9.80;;;1.08;;
52368;SDS011;38298;50.346;3.526;2023-03-14T00:21:00;11.00;;;1.85;;
52368;SDS011;38298;50.346;3.526;2023-03-14T00:23:27;14.07;;;2.85;;
52368;SDS011;38298;50.346;3.526;2023-03-14T00:25:53;8.10;;;1.20;;
52368;SDS011;38298;50.346;3.526;2023-03-14T00:28:20;13.23;;;1.90;;
52368;SDS011;38298;50.346;3.526;2023-03-14T00:30:46;8.18;;;1.55;;
52368;SDS011;38298;50.346;3.526;2023-03-14T00:33:12;10.20;;;1.20;;
52368;SDS011;38298;50.346;3.526;2023-03-14T00:35:38;13.80;;;1.50;;
52368;SDS011;38298;50.346;3.526;2023-03-14T00:38:04;10.23;;;1.70;;
52368;SDS011;38298;50.346;3.526;2023-03-14T00:40:30;9.30;;;1.40;;
52368;SDS011;38298;50.346;3.526;2023-03-14T00:42:56;7.28;;;1.38;;
52368;SDS011;38298;50.346;3.526;2023-03-14T00:45:22;11.18;;;1.88;;
52368;SDS011;38298;50.346;3.526;2023-03-14T00:47:48;9.05;;;1.30;;
52368;SDS011;38298;50.346;3.526;2023-03-14T00:50:14;11.10;;;1.25;;
52368;SDS011;38298;50.346;3.526;2023-03-14T00:52:40;10.52;;;1.52;;
52368;SDS011;38298;50.346;3.526;2023-03-14T00:55:06;8.70;;;1.40;;
52368;SDS011;38298;50.346;3.526;2023-03-14T00:57:32;7.30;;;1.38;;
52368;SDS011;38298;50.346;3.526;2023-03-14T00:59:58;7.07;;;1.05;;
52368;SDS011;38298;50.346;3.526;2023-03-14T01:02:24;11.50;;;1.25;;
52368;SDS011;38298;50.346;3.526;2023-03-14T01:04:50;11.52;;;1.50;;
52368;SDS011;38298;50.346;3.526;2023-03-14T01:07:16;11.30;;;1.60;;
52368;SDS011;38298;50.346;3.526;2023-03-14T01:09:42;9.23;;;1.23;;
52368;SDS011;38298;50.346;3.526;2023-03-14T01:12:08;17.85;;;1.83;;
52368;SDS011;38298;50.346;3.526;2023-03-14T01:14:34;12.60;;;1.42;;
52368;SDS011;38298;50.346;3.526;2023-03-14T01:17:00;12.38;;;1.40;;
52368;SDS011;38298;50.346;3.526;2023-03-14T01:19:27;15.88;;;2.15;;
52368;SDS011;38298;50.346;3.526;2023-03-14T01:21:53;8.98;;;1.70;;
52368;SDS011;38298;50.346;3.526;2023-03-14T01:24:19;11.05;;;1.60;;
52368;SDS011;38298;50.346;3.526;2023-03-14T01:26:45;14.70;;;1.60;;
52368;SDS011;38298;50.346;3.526;2023-03-14T01:29:12;11.15;;;1.85;;
52368;SDS011;38298;50.346;3.526;2023-03-14T01:31:38;10.63;;;1.33;;
52368;SDS011;38298;50.346;3.526;2023-03-14T01:34:04;10.20;;;1.20;;
52368;SDS011;38298;50.346;3.526;2023-03-14T01:36:30;12.95;;;1.17;;
52368;SDS011;38298;50.346;3.526;2023-03-14T01:38:56;15.00;;;1.65;;
52368;SDS011;38298;50.346;3.526;2023-03-14T01:41:23;4.07;;;0.80;;
52368;SDS011;38298;50.346;3.526;2023-03-14T01:43:50;12.10;;;2.00;;
52368;SDS011;38298;50.346;3.526;2023-03-14T01:54:00;5.93;;;0.95;;
52368;SDS011;38298;50.346;3.526;2023-03-14T01:56:28;9.80;;;1.33;;
52368;SDS011;38298;50.346;3.526;2023-03-14T01:58:54;7.25;;;1.35;;
52368;SDS011;38298;50.346;3.526;2023-03-14T02:01:21;4.15;;;1.27;;
52368;SDS011;38298;50.346;3.526;2023-03-14T02:03:52;7.40;;;1.37;;
52368;SDS011;38298;50.346;3.526;2023-03-14T02:06:19;10.70;;;1.27;;
52368;SDS011;38298;50.346;3.526;2023-03-14T02:08:46;11.45;;;1.30;;
52368;SDS011;38298;50.346;3.526;2023-03-14T02:11:14;11.70;;;1.30;;
52368;SDS011;38298;50.346;3.526;2023-03-14T02:13:40;7.97;;;1.25;;
52368;SDS011;38298;50.346;3.526;2023-03-14T02:16:06;11.05;;;1.33;;
52368;SDS011;38298;50.346;3.526;2023-03-14T02:18:32;7.68;;;1.55;;
52368;SDS011;38298;50.346;3.526;2023-03-14T02:21:06;7.85;;;1.05;;
52368;SDS011;38298;50.346;3.526;2023-03-14T02:23:47;5.72;;;1.30;;
52368;SDS011;38298;50.346;3.526;2023-03-14T02:26:23;6.85;;;1.23;;
52368;SDS011;38298;50.346;3.526;2023-03-14T02:28:50;8.82;;;1.55;;
52368;SDS011;38298;50.346;3.526;2023-03-14T02:31:18;8.00;;;1.02;;
52368;SDS011;38298;50.346;3.526;2023-03-14T02:33:46;6.70;;;1.42;;
52368;SDS011;38298;50.346;3.526;2023-03-14T02:36:13;9.57;;;1.00;;
52368;SDS011;38298;50.346;3.526;2023-03-14T02:38:47;7.20;;;1.13;;
52368;SDS011;38298;50.346;3.526;2023-03-14T02:41:13;10.93;;;1.30;;
52368;SDS011;38298;50.346;3.526;2023-03-14T02:43:42;7.45;;;1.30;;
52368;SDS011;38298;50.346;3.526;2023-03-14T02:46:12;5.82;;;1.25;;
52368;SDS011;38298;50.346;3.526;2023-03-14T02:51:04;7.18;;;1.58;;
52368;SDS011;38298;50.346;3.526;2023-03-14T02:53:32;9.48;;;1.30;;
52368;SDS011;38298;50.346;3.526;2023-03-14T02:55:59;14.02;;;1.30;;
52368;SDS011;38298;50.346;3.526;2023-03-14T02:58:25;2.63;;;0.77;;
52368;SDS011;38298;50.346;3.526;2023-03-14T03:00:51;7.28;;;0.95;;
52368;SDS011;38298;50.346;3.526;2023-03-14T03:03:17;5.15;;;0.88;;
52368;SDS011;38298;50.346;3.526;2023-03-14T03:05:47;7.95;;;1.00;;
52368;SDS011;38298;50.346;3.526;2023-03-14T03:08:13;7.05;;;1.23;;
52368;SDS011;38298;50.346;3.526;2023-03-14T03:10:39;5.03;;;1.08;;
52368;SDS011;38298;50.346;3.526;2023-03-14T03:13:05;8.20;;;1.00;;
52368;SDS011;38298;50.346;3.526;2023-03-14T03:15:31;6.68;;;0.80;;
52368;SDS011;38298;50.346;3.526;2023-03-14T03:17:57;6.32;;;1.08;;
52368;SDS011;38298;50.346;3.526;2023-03-14T03:20:23;6.88;;;0.93;;
52368;SDS011;38298;50.346;3.526;2023-03-14T03:22:49;3.30;;;0.95;;
52368;SDS011;38298;50.346;3.526;2023-03-14T03:25:15;5.32;;;1.10;;
52368;SDS011;38298;50.346;3.526;2023-03-14T03:27:41;7.60;;;1.15;;
52368;SDS011;38298;50.346;3.526;2023-03-14T03:30:08;4.22;;;0.70;;
52368;SDS011;38298;50.346;3.526;2023-03-14T03:32:34;4.53;;;0.65;;
52368;SDS011;38298;50.346;3.526;2023-03-14T03:35:01;2.28;;;0.65;;
52368;SDS011;38298;50.346;3.526;2023-03-14T03:37:27;4.60;;;0.85;;
52368;SDS011;38298;50.346;3.526;2023-03-14T03:39:55;5.68;;;0.82;;
52368;SDS011;38298;50.346;3.526;2023-03-14T03:42:21;3.20;;;0.70;;
52368;SDS011;38298;50.346;3.526;2023-03-14T03:44:47;4.47;;;1.30;;
52368;SDS011;38298;50.346;3.526;2023-03-14T03:47:14;3.13;;;0.77;;
52368;SDS011;38298;50.346;3.526;2023-03-14T03:49:40;5.07;;;1.15;;
52368;SDS011;38298;50.346;3.526;2023-03-14T03:52:06;2.90;;;0.70;;
52368;SDS011;38298;50.346;3.526;2023-03-14T03:54:33;1.85;;;0.80;;
52368;SDS011;38298;50.346;3.526;2023-03-14T03:56:59;4.10;;;0.57;;
52368;SDS011;38298;50.346;3.526;2023-03-14T03:59:25;7.45;;;1.30;;
52368;SDS011;38298;50.346;3.526;2023-03-14T04:01:51;2.85;;;0.85;;
52368;SDS011;38298;50.346;3.526;2023-03-14T04:04:17;3.80;;;0.82;;
52368;SDS011;38298;50.346;3.526;2023-03-14T04:06:43;5.38;;;0.75;;
52368;SDS011;38298;50.346;3.526;2023-03-14T04:09:10;4.32;;;0.80;;
52368;SDS011;38298;50.346;3.526;2023-03-14T04:11:36;2.05;;;0.73;;
52368;SDS011;38298;50.346;3.526;2023-03-14T04:14:03;2.75;;;0.77;;
52368;SDS011;38298;50.346;3.526;2023-03-14T04:16:29;3.55;;;1.00;;
52368;SDS011;38298;50.346;3.526;2023-03-14T04:18:56;4.85;;;0.80;;
52368;SDS011;38298;50.346;3.526;2023-03-14T04:21:22;5.88;;;0.63;;
52368;SDS011;38298;50.346;3.526;2023-03-14T04:23:48;2.88;;;0.45;;
52368;SDS011;38298;50.346;3.526;2023-03-14T04:26:14;3.25;;;0.50;;
52368;SDS011;38298;50.346;3.526;2023-03-14T04:28:40;1.60;;;0.65;;
52368;SDS011;38298;50.346;3.526;2023-03-14T04:31:07;2.03;;;0.50;;
52368;SDS011;38298;50.346;3.526;2023-03-14T04:33:33;1.30;;;0.43;;
52368;SDS011;38298;50.346;3.526;2023-03-14T04:36:01;1.85;;;0.40;;
52368;SDS011;38298;50.346;3.526;2023-03-14T04:38:27;1.23;;;0.50;;
52368;SDS011;38298;50.346;3.526;2023-03-14T04:40:53;0.88;;;0.50;;
52368;SDS011;38298;50.346;3.526;2023-03-14T04:43:18;0.80;;;0.60;;
52368;SDS011;38298;50.346;3.526;2023-03-14T04:45:44;1.55;;;0.50;;
52368;SDS011;38298;50.346;3.526;2023-03-14T04:48:10;3.05;;;0.80;;
52368;SDS011;38298;50.346;3.526;2023-03-14T04:50:37;2.20;;;0.60;;
52368;SDS011;38298;50.346;3.526;2023-03-14T04:53:03;2.42;;;0.60;;
52368;SDS011;38298;50.346;3.526;2023-03-14T04:55:29;3.22;;;0.63;;
52368;SDS011;38298;50.346;3.526;2023-03-14T04:57:57;2.00;;;0.65;;
52368;SDS011;38298;50.346;3.526;2023-03-14T05:00:23;2.30;;;0.60;;
52368;SDS011;38298;50.346;3.526;2023-03-14T05:02:49;0.68;;;0.50;;
52368;SDS011;38298;50.346;3.526;2023-03-14T05:05:15;1.60;;;0.50;;
52368;SDS011;38298;50.346;3.526;2023-03-14T05:07:41;1.73;;;0.85;;
52368;SDS011;38298;50.346;3.526;2023-03-14T05:10:07;3.95;;;0.70;;
52368;SDS011;38298;50.346;3.526;2023-03-14T05:12:33;12.45;;;1.27;;
52368;SDS011;38298;50.346;3.526;2023-03-14T05:14:59;0.65;;;0.60;;
52368;SDS011;38298;50.346;3.526;2023-03-14T05:17:25;1.85;;;0.88;;
52368;SDS011;38298;50.346;3.526;2023-03-14T05:19:51;0.73;;;0.50;;
52368;SDS011;38298;50.346;3.526;2023-03-14T05:22:17;0.70;;;0.63;;
52368;SDS011;38298;50.346;3.526;2023-03-14T05:24:43;1.10;;;0.73;;
52368;SDS011;38298;50.346;3.526;2023-03-14T05:27:09;2.83;;;0.70;;
52368;SDS011;38298;50.346;3.526;2023-03-14T05:29:35;3.95;;;0.77;;
52368;SDS011;38298;50.346;3.526;2023-03-14T05:32:01;4.35;;;0.98;;
52368;SDS011;38298;50.346;3.526;2023-03-14T05:34:27;2.67;;;0.95;;
52368;SDS011;38298;50.346;3.526;2023-03-14T05:36:53;3.53;;;1.00;;
52368;SDS011;38298;50.346;3.526;2023-03-14T05:39:21;5.00;;;1.67;;
52368;SDS011;38298;50.346;3.526;2023-03-14T05:41:47;2.00;;;0.82;;
52368;SDS011;38298;50.346;3.526;2023-03-14T05:44:13;5.93;;;1.45;;
52368;SDS011;38298;50.346;3.526;2023-03-14T05:46:39;6.70;;;1.20;;
52368;SDS011;38298;50.346;3.526;2023-03-14T05:49:05;1.38;;;0.70;;
52368;SDS011;38298;50.346;3.526;2023-03-14T05:51:31;5.47;;;1.30;;
52368;SDS011;38298;50.346;3.526;2023-03-14T05:53:57;2.35;;;1.13;;
52368;SDS011;38298;50.346;3.526;2023-03-14T05:56:23;2.92;;;1.02;;
52368;SDS011;38298;50.346;3.526;2023-03-14T05:58:49;1.77;;;0.82;;
52368;SDS011;38298;50.346;3.526;2023-03-14T06:01:15;1.02;;;0.93;;
52368;SDS011;38298;50.346;3.526;2023-03-14T06:03:40;4.20;;;1.27;;
52368;SDS011;38298;50.346;3.526;2023-03-14T06:06:06;2.80;;;1.00;;
52368;SDS011;38298;50.346;3.526;2023-03-14T06:08:33;2.78;;;1.10;;
52368;SDS011;38298;50.346;3.526;2023-03-14T06:10:59;1.67;;;0.80;;
52368;SDS011;38298;50.346;3.526;2023-03-14T06:13:27;3.65;;;0.60;;
52368;SDS011;38298;50.346;3.526;2023-03-14T06:15:53;1.70;;;0.77;;
52368;SDS011;38298;50.346;3.526;2023-03-14T06:18:19;1.42;;;0.60;;
52368;SDS011;38298;50.346;3.526;2023-03-14T06:20:45;2.80;;;0.77;;
52368;SDS011;38298;50.346;3.526;2023-03-14T06:23:11;2.50;;;0.85;;
52368;SDS011;38298;50.346;3.526;2023-03-14T06:25:37;1.73;;;0.95;;
52368;SDS011;38298;50.346;3.526;2023-03-14T06:28:03;3.83;;;1.75;;
52368;SDS011;38298;50.346;3.526;2023-03-14T06:30:29;11.43;;;1.70;;
52368;SDS011;38298;50.346;3.526;2023-03-14T06:32:55;4.75;;;1.00;;
52368;SDS011;38298;50.346;3.526;2023-03-14T06:35:22;1.27;;;1.10;;
52368;SDS011;38298;50.346;3.526;2023-03-14T06:37:48;3.63;;;1.40;;
52368;SDS011;38298;50.346;3.526;2023-03-14T06:40:14;6.05;;;1.30;;
52368;SDS011;38298;50.346;3.526;2023-03-14T06:42:45;2.60;;;1.00;;
52368;SDS011;38298;50.346;3.526;2023-03-14T06:45:11;4.38;;;1.23;;
52368;SDS011;38298;50.346;3.526;2023-03-14T06:47:37;3.80;;;1.08;;
52368;SDS011;38298;50.346;3.526;2023-03-14T06:50:04;2.70;;;0.90;;
52368;SDS011;38298;50.346;3.526;2023-03-14T06:52:30;3.38;;;1.10;;
52368;SDS011;38298;50.346;3.526;2023-03-14T06:54:56;4.68;;;1.00;;
52368;SDS011;38298;50.346;3.526;2023-03-14T06:57:22;4.90;;;0.93;;
52368;SDS011;38298;50.346;3.526;2023-03-14T06:59:48;3.60;;;1.30;;
52368;SDS011;38298;50.346;3.526;2023-03-14T07:02:14;3.78;;;0.93;;
52368;SDS011;38298;50.346;3.526;2023-03-14T07:04:40;2.15;;;1.23;;
52368;SDS011;38298;50.346;3.526;2023-03-14T07:07:06;3.00;;;1.10;;
52368;SDS011;38298;50.346;3.526;2023-03-14T07:09:33;3.08;;;1.50;;
52368;SDS011;38298;50.346;3.526;2023-03-14T07:11:59;4.30;;;1.45;;
52368;SDS011;38298;50.346;3.526;2023-03-14T07:14:25;1.35;;;1.25;;
52368;SDS011;38298;50.346;3.526;2023-03-14T07:16:51;3.10;;;1.55;;
52368;SDS011;38298;50.346;3.526;2023-03-14T07:19:17;5.78;;;1.50;;
52368;SDS011;38298;50.346;3.526;2023-03-14T07:21:43;4.35;;;1.70;;
52368;SDS011;38298;50.346;3.526;2023-03-14T07:24:09;2.92;;;1.38;;
52368;SDS011;38298;50.346;3.526;2023-03-14T07:26:35;3.58;;;1.50;;
52368;SDS011;38298;50.346;3.526;2023-03-14T07:29:01;2.63;;;1.35;;
52368;SDS011;38298;50.346;3.526;2023-03-14T07:31:30;6.00;;;2.17;;
52368;SDS011;38298;50.346;3.526;2023-03-14T07:33:56;3.95;;;1.67;;
52368;SDS011;38298;50.346;3.526;2023-03-14T07:36:22;4.78;;;1.45;;
52368;SDS011;38298;50.346;3.526;2023-03-14T07:38:48;7.32;;;1.70;;
52368;SDS011;38298;50.346;3.526;2023-03-14T07:41:14;3.28;;;1.48;;
52368;SDS011;38298;50.346;3.526;2023-03-14T07:43:40;4.15;;;1.42;;
52368;SDS011;38298;50.346;3.526;2023-03-14T07:46:07;7.97;;;1.95;;
52368;SDS011;38298;50.346;3.526;2023-03-14T07:48:33;6.18;;;1.55;;
52368;SDS011;38298;50.346;3.526;2023-03-14T07:50:59;4.85;;;1.48;;
52368;SDS011;38298;50.346;3.526;2023-03-14T07:53:25;4.60;;;1.05;;
52368;SDS011;38298;50.346;3.526;2023-03-14T07:55:51;2.33;;;0.95;;
52368;SDS011;38298;50.346;3.526;2023-03-14T07:58:18;2.47;;;1.00;;
52368;SDS011;38298;50.346;3.526;2023-03-14T08:00:46;2.75;;;0.90;;
52368;SDS011;38298;50.346;3.526;2023-03-14T08:03:12;1.02;;;0.60;;
52368;SDS011;38298;50.346;3.526;2023-03-14T08:05:38;5.97;;;0.88;;
52368;SDS011;38298;50.346;3.526;2023-03-14T08:08:05;1.25;;;0.60;;
52368;SDS011;38298;50.346;3.526;2023-03-14T08:10:31;2.00;;;0.65;;
52368;SDS011;38298;50.346;3.526;2023-03-14T08:12:58;4.07;;;0.65;;
52368;SDS011;38298;50.346;3.526;2023-03-14T08:15:24;2.53;;;1.00;;
52368;SDS011;38298;50.346;3.526;2023-03-14T08:17:51;5.25;;;1.00;;
52368;SDS011;38298;50.346;3.526;2023-03-14T08:20:18;5.50;;;1.08;;
52368;SDS011;38298;50.346;3.526;2023-03-14T08:22:44;4.03;;;0.80;;
52368;SDS011;38298;50.346;3.526;2023-03-14T08:25:10;2.38;;;0.60;;
52368;SDS011;38298;50.346;3.526;2023-03-14T08:27:36;2.15;;;1.10;;
52368;SDS011;38298;50.346;3.526;2023-03-14T08:30:04;3.53;;;0.80;;
52368;SDS011;38298;50.346;3.526;2023-03-14T08:32:30;5.63;;;0.82;;
52368;SDS011;38298;50.346;3.526;2023-03-14T08:34:56;4.63;;;0.88;;
52368;SDS011;38298;50.346;3.526;2023-03-14T08:37:22;3.22;;;0.90;;
52368;SDS011;38298;50.346;3.526;2023-03-14T08:39:49;6.50;;;0.57;;
52368;SDS011;38298;50.346;3.526;2023-03-14T08:42:16;6.35;;;1.17;;
52368;SDS011;38298;50.346;3.526;2023-03-14T08:44:42;7.55;;;1.00;;
52368;SDS011;38298;50.346;3.526;2023-03-14T08:50:03;4.38;;;0.90;;
52368;SDS011;38298;50.346;3.526;2023-03-14T08:52:29;7.13;;;0.90;;
52368;SDS011;38298;50.346;3.526;2023-03-14T08:54:55;6.53;;;0.68;;
52368;SDS011;38298;50.346;3.526;2023-03-14T08:57:21;4.22;;;0.70;;
52368;SDS011;38298;50.346;3.526;2023-03-14T08:59:52;6.00;;;1.10;;
52368;SDS011;38298;50.346;3.526;2023-03-14T09:02:18;4.00;;;0.80;;
52368;SDS011;38298;50.346;3.526;2023-03-14T09:04:44;2.72;;;0.85;;
52368;SDS011;38298;50.346;3.526;2023-03-14T09:07:10;5.65;;;0.70;;
52368;SDS011;38298;50.346;3.526;2023-03-14T09:09:36;5.95;;;0.95;;
52368;SDS011;38298;50.346;3.526;2023-03-14T09:12:02;2.08;;;0.52;;
52368;SDS011;38298;50.346;3.526;2023-03-14T09:14:29;4.93;;;1.00;;
52368;SDS011;38298;50.346;3.526;2023-03-14T09:16:56;9.45;;;0.98;;
52368;SDS011;38298;50.346;3.526;2023-03-14T09:19:22;7.35;;;0.90;;
52368;SDS011;38298;50.346;3.526;2023-03-14T09:21:48;2.65;;;0.90;;
52368;SDS011;38298;50.346;3.526;2023-03-14T09:24:14;5.03;;;0.70;;
52368;SDS011;38298;50.346;3.526;2023-03-14T09:26:40;4.57;;;0.77;;
52368;SDS011;38298;50.346;3.526;2023-03-14T09:29:06;1.38;;;0.55;;
52368;SDS011;38298;50.346;3.526;2023-03-14T09:31:32;4.93;;;0.75;;
52368;SDS011;38298;50.346;3.526;2023-03-14T09:33:59;4.93;;;0.70;;
52368;SDS011;38298;50.346;3.526;2023-03-14T09:36:25;3.55;;;0.75;;
52368;SDS011;38298;50.346;3.526;2023-03-14T09:38:51;5.63;;;0.80;;
52368;SDS011;38298;50.346;3.526;2023-03-14T09:41:18;7.72;;;1.20;;
52368;SDS011;38298;50.346;3.526;2023-03-14T09:43:47;2.92;;;0.60;;
52368;SDS011;38298;50.346;3.526;2023-03-14T09:46:16;4.70;;;0.63;;
52368;SDS011;38298;50.346;3.526;2023-03-14T09:48:42;5.22;;;1.58;;
52368;SDS011;38298;50.346;3.526;2023-03-14T09:51:13;4.05;;;1.20;;
52368;SDS011;38298;50.346;3.526;2023-03-14T09:56:08;4.40;;;1.00;;
52368;SDS011;38298;50.346;3.526;2023-03-14T09:58:36;5.15;;;1.10;;
52368;SDS011;38298;50.346;3.526;2023-03-14T10:01:03;2.90;;;0.73;;
52368;SDS011;38298;50.346;3.526;2023-03-14T10:03:34;4.60;;;0.90;;
52368;SDS011;38298;50.346;3.526;2023-03-14T10:06:00;4.68;;;0.70;;
52368;SDS011;38298;50.346;3.526;2023-03-14T10:08:27;5.97;;;0.90;;
52368;SDS011;38298;50.346;3.526;2023-03-14T10:10:53;4.35;;;0.82;;
52368;SDS011;38298;50.346;3.526;2023-03-14T10:13:23;4.25;;;0.68;;
52368;SDS011;38298;50.346;3.526;2023-03-14T10:18:20;5.45;;;0.77;;
52368;SDS011;38298;50.346;3.526;2023-03-14T10:20:48;8.02;;;1.45;;
52368;SDS011;38298;50.346;3.526;2023-03-14T10:25:41;5.15;;;1.20;;
52368;SDS011;38298;50.346;3.526;2023-03-14T10:30:52;8.23;;;1.65;;
52368;SDS011;38298;50.346;3.526;2023-03-14T10:35:44;5.05;;;1.13;;
52368;SDS011;38298;50.346;3.526;2023-03-14T10:38:14;7.20;;;1.30;;
52368;SDS011;38298;50.346;3.526;2023-03-14T10:40:41;9.15;;;1.17;;
52368;SDS011;38298;50.346;3.526;2023-03-14T10:43:14;4.30;;;0.95;;
52368;SDS011;38298;50.346;3.526;2023-03-14T10:45:41;8.38;;;0.88;;
52368;SDS011;38298;50.346;3.526;2023-03-14T10:50:53;3.85;;;1.20;;
52368;SDS011;38298;50.346;3.526;2023-03-14T10:53:20;4.90;;;0.73;;
52368;SDS011;38298;50.346;3.526;2023-03-14T10:55:46;7.10;;;1.77;;
52368;SDS011;38298;50.346;3.526;2023-03-14T10:58:23;6.22;;;0.60;;
52368;SDS011;38298;50.346;3.526;2023-03-14T11:00:54;2.22;;;0.50;;
52368;SDS011;38298;50.346;3.526;2023-03-14T11:03:23;1.50;;;0.73;;
52368;SDS011;38298;50.346;3.526;2023-03-14T11:05:57;4.35;;;0.63;;
52368;SDS011;38298;50.346;3.526;2023-03-14T11:08:25;3.42;;;0.77;;
52368;SDS011;38298;50.346;3.526;2023-03-14T11:18:43;5.20;;;0.70;;
52368;SDS011;38298;50.346;3.526;2023-03-14T11:21:18;3.58;;;0.77;;
52368;SDS011;38298;50.346;3.526;2023-03-14T11:31:35;6.55;;;1.20;;
52368;SDS011;38298;50.346;3.526;2023-03-14T11:36:37;3.13;;;0.93;;
52368;SDS011;38298;50.346;3.526;2023-03-14T11:39:07;6.45;;;0.70;;
52368;SDS011;38298;50.346;3.526;2023-03-14T11:41:40;9.45;;;1.10;;
52368;SDS011;38298;50.346;3.526;2023-03-14T11:44:48;2.63;;;0.50;;
52368;SDS011;38298;50.346;3.526;2023-03-14T11:47:17;3.45;;;0.88;;
52368;SDS011;38298;50.346;3.526;2023-03-14T11:54:50;2.47;;;0.70;;
52368;SDS011;38298;50.346;3.526;2023-03-14T11:57:18;3.38;;;0.70;;
52368;SDS011;38298;50.346;3.526;2023-03-14T12:02:14;4.18;;;0.73;;
52368;SDS011;38298;50.346;3.526;2023-03-14T12:04:54;5.35;;;1.00;;
52368;SDS011;38298;50.346;3.526;2023-03-14T12:07:29;9.70;;;1.00;;
52368;SDS011;38298;50.346;3.526;2023-03-14T12:09:59;4.95;;;0.90;;
52368;SDS011;38298;50.346;3.526;2023-03-14T12:12:25;7.00;;;0.82;;
52368;SDS011;38298;50.346;3.526;2023-03-14T12:14:54;1.77;;;0.47;;
52368;SDS011;38298;50.346;3.526;2023-03-14T12:17:39;6.25;;;0.80;;
52368;SDS011;38298;50.346;3.526;2023-03-14T12:20:19;2.95;;;0.80;;
52368;SDS011;38298;50.346;3.526;2023-03-14T12:30:15;5.22;;;0.70;;
52368;SDS011;38298;50.346;3.526;2023-03-14T12:32:42;4.63;;;0.80;;
52368;SDS011;38298;50.346;3.526;2023-03-14T12:35:32;10.07;;;1.00;;
52368;SDS011;38298;50.346;3.526;2023-03-14T12:37:57;4.45;;;1.02;;
52368;SDS011;38298;50.346;3.526;2023-03-14T12:40:26;7.45;;;0.73;;
52368;SDS011;38298;50.346;3.526;2023-03-14T12:42:59;4.60;;;0.85;;
52368;SDS011;38298;50.346;3.526;2023-03-14T12:50:37;2.45;;;0.82;;
52368;SDS011;38298;50.346;3.526;2023-03-14T12:53:18;7.35;;;0.80;;
52368;SDS011;38298;50.346;3.526;2023-03-14T12:55:58;5.47;;;1.02;;
52368;SDS011;38298;50.346;3.526;2023-03-14T12:58:44;6.57;;;1.10;;
52368;SDS011;38298;50.346;3.526;2023-03-14T13:01:17;1.98;;;0.50;;
52368;SDS011;38298;50.346;3.526;2023-03-14T13:03:48;5.18;;;1.00;;
52368;SDS011;38298;50.346;3.526;2023-03-14T13:09:49;3.92;;;0.77;;
52368;SDS011;38298;50.346;3.526;2023-03-14T13:11:56;3.08;;;0.90;;
52368;SDS011;38298;50.346;3.526;2023-03-14T13:14:27;4.43;;;0.80;;
52368;SDS011;38298;50.346;3.526;2023-03-14T13:16:53;3.53;;;0.85;;
52368;SDS011;38298;50.346;3.526;2023-03-14T13:19:20;6.47;;;1.02;;
52368;SDS011;38298;50.346;3.526;2023-03-14T13:21:47;3.03;;;0.70;;
52368;SDS011;38298;50.346;3.526;2023-03-14T13:24:23;2.47;;;0.60;;
52368;SDS011;38298;50.346;3.526;2023-03-14T13:26:49;1.27;;;0.43;;
52368;SDS011;38298;50.346;3.526;2023-03-14T13:29:21;3.08;;;0.80;;
52368;SDS011;38298;50.346;3.526;2023-03-14T13:31:49;4.07;;;0.70;;
52368;SDS011;38298;50.346;3.526;2023-03-14T13:34:15;5.35;;;0.60;;
52368;SDS011;38298;50.346;3.526;2023-03-14T13:36:42;4.15;;;0.70;;
52368;SDS011;38298;50.346;3.526;2023-03-14T13:39:18;1.55;;;0.35;;
52368;SDS011;38298;50.346;3.526;2023-03-14T13:41:47;2.67;;;0.73;;
52368;SDS011;38298;50.346;3.526;2023-03-14T13:44:15;5.55;;;1.27;;
52368;SDS011;38298;50.346;3.526;2023-03-14T13:46:42;5.82;;;0.85;;
52368;SDS011;38298;50.346;3.526;2023-03-14T13:49:23;3.28;;;1.05;;
52368;SDS011;38298;50.346;3.526;2023-03-14T13:51:50;2.90;;;1.08;;
52368;SDS011;38298;50.346;3.526;2023-03-14T13:54:18;4.60;;;1.23;;
52368;SDS011;38298;50.346;3.526;2023-03-14T13:57:00;1.73;;;1.05;;
52368;SDS011;38298;50.346;3.526;2023-03-14T13:59:27;4.32;;;1.00;;
52368;SDS011;38298;50.346;3.526;2023-03-14T14:01:54;0.88;;;0.60;;
52368;SDS011;38298;50.346;3.526;2023-03-14T14:04:22;1.75;;;0.50;;
52368;SDS011;38298;50.346;3.526;2023-03-14T14:06:57;0.95;;;0.43;;
52368;SDS011;38298;50.346;3.526;2023-03-14T14:09:24;1.88;;;0.50;;
52368;SDS011;38298;50.346;3.526;2023-03-14T14:14:21;2.85;;;0.60;;
52368;SDS011;38298;50.346;3.526;2023-03-14T14:16:48;0.80;;;0.60;;
52368;SDS011;38298;50.346;3.526;2023-03-14T14:19:15;1.42;;;0.90;;
52368;SDS011;38298;50.346;3.526;2023-03-14T14:21:42;2.97;;;1.05;;
52368;SDS011;38298;50.346;3.526;2023-03-14T14:24:10;3.97;;;1.42;;
52368;SDS011;38298;50.346;3.526;2023-03-14T14:26:39;5.00;;;1.27;;
52368;SDS011;38298;50.346;3.526;2023-03-14T14:29:06;5.38;;;1.13;;
52368;SDS011;38298;50.346;3.526;2023-03-14T14:31:32;3.05;;;1.05;;
52368;SDS011;38298;50.346;3.526;2023-03-14T14:34:02;7.75;;;1.48;;
52368;SDS011;38298;50.346;3.526;2023-03-14T14:36:30;10.23;;;1.27;;
52368;SDS011;38298;50.346;3.526;2023-03-14T14:39:00;4.72;;;0.88;;
52368;SDS011;38298;50.346;3.526;2023-03-14T14:41:32;17.15;;;1.65;;
52368;SDS011;38298;50.346;3.526;2023-03-14T14:43:59;8.63;;;1.40;;
52368;SDS011;38298;50.346;3.526;2023-03-14T14:46:26;12.10;;;1.85;;
52368;SDS011;38298;50.346;3.526;2023-03-14T14:48:57;6.75;;;1.55;;
52368;SDS011;38298;50.346;3.526;2023-03-14T14:51:30;6.45;;;1.52;;
52368;SDS011;38298;50.346;3.526;2023-03-14T14:54:04;7.43;;;1.67;;
52368;SDS011;38298;50.346;3.526;2023-03-14T14:56:35;9.25;;;1.80;;
52368;SDS011;38298;50.346;3.526;2023-03-14T14:59:02;8.73;;;2.15;;
52368;SDS011;38298;50.346;3.526;2023-03-14T15:01:37;15.75;;;2.78;;
52368;SDS011;38298;50.346;3.526;2023-03-14T15:04:11;10.65;;;2.22;;
52368;SDS011;38298;50.346;3.526;2023-03-14T15:06:38;10.23;;;2.70;;
52368;SDS011;38298;50.346;3.526;2023-03-14T15:09:04;11.43;;;1.50;;
52368;SDS011;38298;50.346;3.526;2023-03-14T15:11:31;7.32;;;1.48;;
52368;SDS011;38298;50.346;3.526;2023-03-14T15:13:57;6.60;;;1.50;;
52368;SDS011;38298;50.346;3.526;2023-03-14T15:16:25;7.63;;;1.30;;
52368;SDS011;38298;50.346;3.526;2023-03-14T15:18:56;6.10;;;1.40;;
52368;SDS011;38298;50.346;3.526;2023-03-14T15:21:23;7.18;;;1.15;;
52368;SDS011;38298;50.346;3.526;2023-03-14T15:23:49;9.88;;;0.98;;
52368;SDS011;38298;50.346;3.526;2023-03-14T15:26:19;11.68;;;1.35;;
52368;SDS011;38298;50.346;3.526;2023-03-14T15:31:12;7.43;;;2.05;;
52368;SDS011;38298;50.346;3.526;2023-03-14T15:33:39;12.77;;;2.00;;
52368;SDS011;38298;50.346;3.526;2023-03-14T15:36:06;14.07;;;2.00;;
52368;SDS011;38298;50.346;3.526;2023-03-14T15:38:36;14.68;;;1.88;;
52368;SDS011;38298;50.346;3.526;2023-03-14T15:41:02;10.52;;;2.10;;
52368;SDS011;38298;50.346;3.526;2023-03-14T15:43:28;4.00;;;1.58;;
52368;SDS011;38298;50.346;3.526;2023-03-14T15:45:54;5.80;;;1.50;;
52368;SDS011;38298;50.346;3.526;2023-03-14T15:48:22;6.22;;;1.30;;
52368;SDS011;38298;50.346;3.526;2023-03-14T15:50:48;7.30;;;1.38;;
52368;SDS011;38298;50.346;3.526;2023-03-14T15:53:14;10.80;;;1.48;;
52368;SDS011;38298;50.346;3.526;2023-03-14T15:55:40;4.72;;;1.63;;
52368;SDS011;38298;50.346;3.526;2023-03-14T15:58:06;9.57;;;1.15;;
52368;SDS011;38298;50.346;3.526;2023-03-14T16:00:32;8.27;;;1.77;;
52368;SDS011;38298;50.346;3.526;2023-03-14T16:02:59;8.13;;;1.90;;